WetterOnline ( http://www.wetteronline.ch )

Wetter aktuell Marnitz

Aktuelles Wetter: Marnitz (87m)

6-stündlich | Neueste Meldungen
Ortszeit Temperatur Wetter
Mi, 20.02. 13:00 9.2° C bedeckt
Mi, 20.02. 7:00 5.5° C bedeckt
Mi, 20.02. 1:00 5.6° C bewölkt
Di, 19.02. 19:00 5.9° C bedeckt
Di, 19.02. 13:00 7.9° C bedeckt
Di, 19.02. 7:00 5.8° C bedeckt
Di, 19.02. 1:00 8.3° C wolkig
Mo, 18.02. 19:00 8.0° C wolkenlos
Ortszeit Temperatur Wetter
Mi, 20.02. 13:30 10.1° C bedeckt
Mi, 20.02. 13:20 10.1° C bedeckt
Mi, 20.02. 13:10 10.0° C bedeckt
Mi, 20.02. 13:00 9.2° C bedeckt
Mi, 20.02. 12:50 9.2° C bedeckt
Mi, 20.02. 12:40 9.4° C bedeckt
Mi, 20.02. 12:30 8.6° C bedeckt
Mi, 20.02. 12:00 9.2° C bewölkt
Mi, 20.02. 11:30 8.2° C bewölkt
Mi, 20.02. 11:00 7.6° C -
Mi, 20.02. 10:30 7.1° C bewölkt
Ortszeit Relative Feuchte Sichtweite
Mi, 20.02. 13:00 70% 14 km
Mi, 20.02. 7:00 84% 11 km
Mi, 20.02. 1:00 86% 18 km
Di, 19.02. 19:00 81% 65 km
Di, 19.02. 13:00 71% 15 km
Di, 19.02. 7:00 70% 18 km
Di, 19.02. 1:00 59% 20 km
Mo, 18.02. 19:00 66% 15 km
Ortszeit Relative Feuchte Sichtweite
Mi, 20.02. 13:30 69% 15 km
Mi, 20.02. 13:20 69% -
Mi, 20.02. 13:10 67% -
Mi, 20.02. 13:00 70% 14 km
Mi, 20.02. 12:50 70% -
Mi, 20.02. 12:40 71% -
Mi, 20.02. 12:30 74% 11 km
Mi, 20.02. 12:00 73% 11 km
Mi, 20.02. 11:30 75% 10 km
Mi, 20.02. 11:00 77% 10 km
Mi, 20.02. 10:30 80% 10 km
Ortszeit Niederschlagsmenge Niederschlagsart
Mi, 20.02. 13:00 0.0 l/m2 in 6 Std. -
Mi, 20.02. 7:00 0.3 l/m2 in 12 Std. Regen
Mi, 20.02. 1:00 0.3 l/m2 in 6 Std. Regen
Di, 19.02. 19:00 0.9 l/m2 in 12 Std. Regen
Di, 19.02. 13:00 0.1 l/m2 in 6 Std. Regen
Di, 19.02. 7:00 0.0 l/m2 in 12 Std. -
Di, 19.02. 1:00 0.0 l/m2 in 6 Std. -
Mo, 18.02. 19:00 0.0 l/m2 in 12 Std. -
Ortszeit Niederschlagsmenge Niederschlagsart
Mi, 20.02. 13:30 0.0 l/m2 in 1 Std. -
Mi, 20.02. 13:20 keine Meldung -
Mi, 20.02. 13:10 keine Meldung -
Mi, 20.02. 13:00 0.0 l/m2 in 1 Std. -
Mi, 20.02. 12:50 keine Meldung -
Mi, 20.02. 12:40 keine Meldung -
Mi, 20.02. 12:30 0.0 l/m2 in 1 Std. -
Mi, 20.02. 12:00 0.0 l/m2 in 1 Std. -
Mi, 20.02. 11:30 0.0 l/m2 in 1 Std. -
Mi, 20.02. 11:00 0.0 l/m2 in 1 Std. -
Mi, 20.02. 10:30 0.0 l/m2 in 1 Std. -
Ortszeit Stärke Spitze Richtung
km/h Bft. km/h Grad Sektor
Mi, 20.02. 13:00 14 3 29 270° W
Mi, 20.02. 7:00 14 3 36 280° W
Mi, 20.02. 1:00 18 3 40 290° W
Di, 19.02. 19:00 19 3 54 290° W
Di, 19.02. 13:00 20 4 41 280° W
Di, 19.02. 7:00 18 3 32 260° W
Di, 19.02. 1:00 14 3 25 250° W
Mo, 18.02. 19:00 9 2 20 210° SW
Ortszeit Stärke Spitze Richtung
km/h Bft. km/h Grad Sektor
Mi, 20.02. 13:30 15 3 28 280° W
Mi, 20.02. 13:20 15 3 - 280° W
Mi, 20.02. 13:10 14 3 - 270° W
Mi, 20.02. 13:00 14 3 29 270° W
Mi, 20.02. 12:50 14 3 - 270° W
Mi, 20.02. 12:40 14 3 - 270° W
Mi, 20.02. 12:30 17 3 26 270° W
Mi, 20.02. 12:00 14 3 29 280° W
Mi, 20.02. 11:30 14 3 29 290° W
Mi, 20.02. 11:00 13 3 30 290° W
Mi, 20.02. 10:30 14 3 29 280° W
Ortszeit Untergrenze Bedeckung Gattung
total tief tief mittel hoch
Mi, 20.02. 13:00 1500 m 8/8 8/8 - - -
Mi, 20.02. 7:00 1500 m 8/8 8/8 - - -
Mi, 20.02. 1:00 570 m 7/8 7/8 - - -
Di, 19.02. 19:00 780 m 8/8 8/8 - - -
Di, 19.02. 13:00 750 m 8/8 8/8 - - -
Di, 19.02. 7:00 4200 m 8/8 8/8 - - -
Di, 19.02. 1:00 6600 m 7/8 3/8 - - -
Mo, 18.02. 19:00 - 0/8 0/8 - - -
Ortszeit Bedeckungsgrad in Achtel und Wolkenuntergrenze
Mi, 20.02. 13:30 1(600m) 8(1800m) 8(5100m)
Mi, 20.02. 13:20 1(600m) 8(1800m) 8(5100m)
Mi, 20.02. 13:10 8(1800m) 8(5100m)
Mi, 20.02. 13:00 8(1500m) 8(5400m)
Mi, 20.02. 12:50 8(1500m) 8(5400m)
Mi, 20.02. 12:40 8(1500m) 8(5100m)
Mi, 20.02. 12:30 8(1500m) 8(5100m)
Mi, 20.02. 12:00 1(480m) 5(1500m) 8(5400m)
Mi, 20.02. 11:30 1(420m) 4(1500m) 8(5400m)
Mi, 20.02. 11:00 -
Mi, 20.02. 10:30 7(4800m) 8(8400m) 8(8400m)
Ortszeit Luftdruck NN (hPa) Tendenz (hPa in 3 Std.)
Mi, 20.02. 13:00 1021 + 1,1
Mi, 20.02. 7:00 1018 + 0,9
Mi, 20.02. 1:00 1017 + 0,7
Di, 19.02. 19:00 1015 + 1,2
Di, 19.02. 13:00 1014 + 0,2
Di, 19.02. 7:00 1012 - 0,1
Di, 19.02. 1:00 1013 - 1,2
Mo, 18.02. 19:00 1016 - 1,1
Ortszeit Luftdruck NN (hPa) Tendenz (hPa in 3 Std.)
Mi, 20.02. 13:30 1021 + 0,7
Mi, 20.02. 13:20 1021 keine Meldung
Mi, 20.02. 13:10 1020 keine Meldung
Mi, 20.02. 13:00 1021 + 1,1
Mi, 20.02. 12:50 1021 keine Meldung
Mi, 20.02. 12:40 1021 keine Meldung
Mi, 20.02. 12:30 1021 + 1,6
Mi, 20.02. 12:00 1021 + 1,8
Mi, 20.02. 11:30 1020 + 1,8
Mi, 20.02. 11:00 1020 + 1,9
Mi, 20.02. 10:30 1020 + 1,8
Ortszeit Schneehöhe (cm)
Mi, 20.02. 13:00 0
Mi, 20.02. 7:00 0
Mi, 20.02. 1:00 0
Di, 19.02. 19:00 0
Di, 19.02. 13:00 0
Di, 19.02. 7:00 0
Di, 19.02. 1:00 0
Mo, 18.02. 19:00 0
Ortszeit Schneehöhe (cm)
Mi, 20.02. 13:30 0
Mi, 20.02. 13:20 0
Mi, 20.02. 13:10 0
Mi, 20.02. 13:00 0
Mi, 20.02. 12:50 0
Mi, 20.02. 12:40 0
Mi, 20.02. 12:30 0
Mi, 20.02. 12:00 0
Mi, 20.02. 11:30 0
Mi, 20.02. 11:00 0
Mi, 20.02. 10:30 0
Link zu dieser Seite / Seite empfehlen

Das Wetter in ...